Time;durP1;ratioP1;P1;durP2;ratioP2;P2;SDS_P1;SDS_P2;PMS_P1;PMS_P2;Temp;Humidity;BMP_temperature;BMP_pressure;BME280_temperature;BME280_humidity;BME280_pressure;Samples;Min_cycle;Max_cycle;Signal;HPM_P1;HPM_P2
2022/05/25 00:00:46;;;;;;;6.78;5.47;;;22.90;64.00;;;;;;6154527;28;80213;-68
2022/05/25 00:03:46;;;;;;;8.27;5.05;;;22.90;63.80;;;;;;6156573;28;81906;-68
2022/05/25 00:06:47;;;;;;;9.27;6.10;;;23.00;63.80;;;;;;6158142;28;80555;-68
2022/05/25 00:09:48;;;;;;;9.35;6.00;;;22.90;64.00;;;;;;6157830;28;80452;-69
2022/05/25 00:12:49;;;;;;;6.63;5.10;;;22.90;63.80;;;;;;6157239;28;80607;-68
2022/05/25 00:15:49;;;;;;;7.55;5.60;;;22.90;63.60;;;;;;6155753;28;80773;-68
2022/05/25 00:22:09;;;;;;;10.35;5.68;;;22.90;63.60;;;;;;6148139;28;82659;-67
2022/05/25 00:25:09;;;;;;;7.15;5.00;;;22.90;63.60;;;;;;6155985;28;80526;-67
2022/05/25 00:28:11;;;;;;;9.32;5.47;;;22.90;63.60;;;;;;6156416;28;80443;-67
2022/05/25 00:31:12;;;;;;;7.82;5.63;;;22.90;63.90;;;;;;6161823;28;80431;-67
2022/05/25 00:34:13;;;;;;;9.07;5.88;;;22.90;64.00;;;;;;6161810;28;80495;-67
2022/05/25 00:37:13;;;;;;;8.80;6.00;;;22.90;63.90;;;;;;6161828;28;80451;-67
2022/05/25 00:40:14;;;;;;;10.25;5.35;;;22.90;63.80;;;;;;6162030;28;86312;-67
2022/05/25 00:43:14;;;;;;;7.88;6.13;;;22.90;63.90;;;;;;6159117;28;80444;-67
2022/05/25 00:46:15;;;;;;;6.18;4.80;;;22.90;63.80;;;;;;6162186;28;80409;-67
2022/05/25 00:49:15;;;;;;;9.85;5.95;;;22.90;63.90;;;;;;6161611;28;80496;-67
2022/05/25 00:52:16;;;;;;;8.48;5.50;;;22.90;63.80;;;;;;6161395;28;80483;-68
2022/05/25 00:55:16;;;;;;;10.80;5.70;;;22.90;64.00;;;;;;6161535;28;82099;-67
2022/05/25 00:58:17;;;;;;;9.25;6.13;;;22.90;63.90;;;;;;6160974;28;80697;-67
2022/05/25 01:01:17;;;;;;;10.18;5.88;;;22.90;63.90;;;;;;6161405;28;80731;-68
2022/05/25 01:04:18;;;;;;;9.63;6.30;;;22.90;63.70;;;;;;6160958;28;80511;-68
2022/05/25 01:07:19;;;;;;;8.73;5.80;;;22.90;63.80;;;;;;6160877;28;80416;-69
2022/05/25 01:10:19;;;;;;;12.32;6.97;;;22.90;63.80;;;;;;6161273;28;81406;-69
2022/05/25 01:13:20;;;;;;;8.90;5.57;;;22.90;63.60;;;;;;6159572;28;80944;-68
2022/05/25 01:16:20;;;;;;;10.10;6.88;;;22.90;63.80;;;;;;6161500;28;81332;-67
2022/05/25 01:19:21;;;;;;;9.60;6.80;;;22.90;63.60;;;;;;6161416;28;80379;-68
2022/05/25 01:22:21;;;;;;;7.63;5.90;;;22.90;63.50;;;;;;6161191;28;80835;-68
2022/05/25 01:25:22;;;;;;;11.82;6.18;;;22.90;63.60;;;;;;6161122;28;80567;-67
2022/05/25 01:28:22;;;;;;;8.85;6.50;;;22.90;63.80;;;;;;6159638;28;80335;-67
2022/05/25 01:31:23;;;;;;;10.60;6.63;;;22.90;63.80;;;;;;6161047;28;80757;-67
2022/05/25 01:34:23;;;;;;;10.82;6.68;;;22.90;63.80;;;;;;6160646;28;81776;-67
2022/05/25 01:37:24;;;;;;;7.38;5.65;;;22.90;63.60;;;;;;6160730;28;80569;-67
2022/05/25 01:40:24;;;;;;;10.02;6.50;;;22.90;63.80;;;;;;6160851;28;80948;-68
2022/05/25 01:43:25;;;;;;;9.05;6.15;;;22.90;63.40;;;;;;6160329;28;81456;-68
2022/05/25 01:46:25;;;;;;;15.82;6.93;;;22.90;63.60;;;;;;6161139;28;80236;-68
2022/05/25 01:49:26;;;;;;;8.32;5.90;;;22.90;63.60;;;;;;6160315;28;80552;-68
2022/05/25 01:52:26;;;;;;;8.98;5.75;;;22.90;63.80;;;;;;6160505;28;80730;-68
2022/05/25 01:55:27;;;;;;;10.27;6.13;;;22.90;63.50;;;;;;6158750;28;81316;-69
2022/05/25 01:58:27;;;;;;;8.27;5.90;;;22.90;63.80;;;;;;6160616;28;80777;-68
2022/05/25 02:01:28;;;;;;;11.10;6.35;;;22.90;63.80;;;;;;6160570;28;80415;-68
2022/05/25 02:04:28;;;;;;;7.53;5.93;;;22.90;64.40;;;;;;6159560;28;82075;-68
2022/05/25 02:07:29;;;;;;;8.88;6.38;;;22.90;63.70;;;;;;6156592;28;82108;-68
2022/05/25 02:10:29;;;;;;;13.02;6.03;;;22.90;63.80;;;;;;6160742;28;80161;-68
2022/05/25 02:13:30;;;;;;;11.88;7.25;;;22.90;63.80;;;;;;6158808;28;81663;-67
2022/05/25 02:16:30;;;;;;;9.43;5.97;;;22.90;63.70;;;;;;6158569;28;83259;-67
2022/05/25 02:19:31;;;;;;;9.50;6.05;;;22.90;63.80;;;;;;6164134;28;80464;-67
2022/05/25 02:22:31;;;;;;;7.93;5.50;;;22.90;63.90;;;;;;6159786;28;80368;-68
2022/05/25 02:25:32;;;;;;;7.45;5.43;;;22.90;63.60;;;;;;6160004;28;80356;-67
2022/05/25 02:28:32;;;;;;;11.18;6.30;;;22.90;63.80;;;;;;6159655;28;80180;-67
2022/05/25 02:31:36;;;;;;;9.15;6.07;;;22.90;63.90;;;;;;6159076;28;80453;-67
2022/05/25 02:34:36;;;;;;;7.53;5.53;;;22.90;63.90;;;;;;6156731;28;80127;-67
2022/05/25 02:37:37;;;;;;;8.35;5.80;;;22.90;63.70;;;;;;6158233;28;80895;-68
2022/05/25 02:40:37;;;;;;;8.48;6.05;;;22.90;63.90;;;;;;6159994;28;80738;-67
2022/05/25 02:43:38;;;;;;;8.98;5.72;;;22.90;64.00;;;;;;6158923;28;80244;-68
2022/05/25 02:46:38;;;;;;;6.85;5.22;;;22.90;64.10;;;;;;6159424;28;80120;-66
2022/05/25 02:49:39;;;;;;;9.80;5.60;;;22.90;64.10;;;;;;6156744;28;81753;-66
2022/05/25 02:52:39;;;;;;;9.00;6.22;;;22.90;64.40;;;;;;6159006;28;80274;-66
2022/05/25 02:55:40;;;;;;;12.57;6.70;;;22.90;64.30;;;;;;6159385;28;82202;-66
2022/05/25 02:58:40;;;;;;;8.25;6.05;;;22.90;64.70;;;;;;6159391;28;80317;-66
2022/05/25 03:01:41;;;;;;;8.10;5.93;;;22.80;64.60;;;;;;6158370;28;80585;-66
2022/05/25 03:04:41;;;;;;;9.52;5.70;;;22.80;64.60;;;;;;6158329;28;80465;-65
2022/05/25 03:07:42;;;;;;;7.80;5.82;;;22.80;64.60;;;;;;6159122;28;80093;-66
2022/05/25 03:10:42;;;;;;;8.23;5.95;;;22.80;64.60;;;;;;6158937;28;80802;-66
2022/05/25 03:13:47;;;;;;;7.57;5.47;;;22.90;64.60;;;;;;6158996;28;80588;-66
2022/05/25 03:16:48;;;;;;;10.05;5.93;;;22.80;64.20;;;;;;6147335;28;80327;-67
2022/05/25 03:19:48;;;;;;;9.80;6.10;;;22.90;64.60;;;;;;6156069;28;81150;-67
2022/05/25 03:22:48;;;;;;;11.18;5.72;;;22.90;64.70;;;;;;6158099;28;80237;-66
2022/05/25 03:25:49;;;;;;;11.50;6.45;;;22.90;64.50;;;;;;6158811;28;81365;-66
2022/05/25 03:28:49;;;;;;;7.13;5.82;;;22.90;64.70;;;;;;6158598;28;80208;-66
2022/05/25 03:31:50;;;;;;;7.70;5.50;;;22.80;64.60;;;;;;6156994;28;80746;-66
2022/05/25 03:34:51;;;;;;;12.00;6.35;;;22.90;64.60;;;;;;6158486;28;81024;-66
2022/05/25 03:37:51;;;;;;;9.00;6.47;;;22.80;64.70;;;;;;6158112;28;80775;-65
2022/05/25 03:40:52;;;;;;;16.45;6.53;;;22.80;65.20;;;;;;6155289;28;81546;-66
2022/05/25 03:43:52;;;;;;;8.98;6.18;;;22.80;64.90;;;;;;6156268;28;84103;-66
2022/05/25 03:46:53;;;;;;;10.30;6.00;;;22.80;65.10;;;;;;6157127;28;80533;-66
2022/05/25 03:49:53;;;;;;;10.88;6.70;;;22.80;65.20;;;;;;6158041;28;80243;-67
2022/05/25 03:52:54;;;;;;;10.60;7.22;;;22.80;65.50;;;;;;6158428;28;86306;-66
2022/05/25 03:55:54;;;;;;;12.43;6.72;;;22.80;65.60;;;;;;6158573;28;80252;-66
2022/05/25 03:58:55;;;;;;;10.05;6.68;;;22.80;65.60;;;;;;6157813;28;80130;-67
2022/05/25 04:01:55;;;;;;;9.43;6.25;;;22.80;65.30;;;;;;6159374;28;81592;-66
2022/05/25 04:05:08;;;;;;;14.05;7.22;;;22.80;65.50;;;;;;6159959;28;80598;-66
2022/05/25 04:08:09;;;;;;;10.70;6.85;;;22.80;65.40;;;;;;6162128;28;80625;-66
2022/05/25 04:11:11;;;;;;;14.13;7.05;;;22.80;65.20;;;;;;6159352;28;80848;-67
2022/05/25 04:14:15;;;;;;;10.07;6.05;;;22.80;65.20;;;;;;6159251;28;81548;-66
2022/05/25 04:17:15;;;;;;;9.70;5.80;;;22.80;65.10;;;;;;6148613;28;80640;-65
2022/05/25 04:20:16;;;;;;;7.53;5.35;;;22.80;65.20;;;;;;6162141;28;82573;-66
2022/05/25 04:23:16;;;;;;;7.28;5.15;;;22.70;64.40;;;;;;6157113;28;80215;-70
2022/05/25 04:26:17;;;;;;;8.32;5.60;;;22.80;64.10;;;;;;6154567;28;80465;-68
2022/05/25 04:29:17;;;;;;;8.43;5.03;;;22.80;64.10;;;;;;6148142;28;80817;-70
2022/05/25 04:32:18;;;;;;;7.03;4.85;;;22.80;63.90;;;;;;6160373;28;82081;-65
2022/05/25 04:35:19;;;;;;;8.93;5.53;;;22.80;64.70;;;;;;6153540;28;82170;-70
2022/05/25 04:38:19;;;;;;;8.50;5.25;;;22.90;64.60;;;;;;6150069;28;81015;-71
2022/05/25 04:41:20;;;;;;;9.15;4.72;;;22.90;64.40;;;;;;6154650;28;80575;-70
2022/05/25 04:44:20;;;;;;;6.38;5.13;;;23.00;64.40;;;;;;6143311;28;82890;-66
2022/05/25 04:47:21;;;;;;;8.82;5.32;;;23.00;65.10;;;;;;6161853;28;80910;-69
2022/05/25 04:50:22;;;;;;;9.70;5.30;;;23.00;65.20;;;;;;6160970;28;81696;-69
2022/05/25 04:53:22;;;;;;;13.82;5.75;;;23.10;65.70;;;;;;6153212;28;80704;-69
2022/05/25 04:59:43;;;;;;;6.60;4.93;;;23.10;64.80;;;;;;6160964;28;80780;-69
2022/05/25 05:02:43;;;;;;;9.10;5.10;;;23.10;64.80;;;;;;6159151;28;80814;-71
2022/05/25 05:05:44;;;;;;;12.02;5.30;;;23.00;65.90;;;;;;6155340;28;88006;-71
2022/05/25 05:08:45;;;;;;;11.85;5.15;;;23.00;66.50;;;;;;6162145;28;82069;-71
2022/05/25 05:11:45;;;;;;;5.65;4.82;;;23.00;67.00;;;;;;6154411;28;80975;-70
2022/05/25 05:14:46;;;;;;;8.23;5.57;;;23.10;66.60;;;;;;6160195;28;81466;-68
2022/05/25 05:17:46;;;;;;;10.77;5.72;;;23.20;65.70;;;;;;6160988;28;81369;-69
2022/05/25 05:21:00;;;;;;;7.80;6.28;;;23.20;65.90;;;;;;6154844;28;83084;-69
2022/05/25 05:24:01;;;;;;;13.00;8.55;;;23.20;66.40;;;;;;6160571;28;80699;-70
2022/05/25 05:27:02;;;;;;;11.77;8.07;;;23.20;67.00;;;;;;6160386;28;80791;-72
2022/05/25 05:30:02;;;;;;;11.73;7.82;;;23.20;68.00;;;;;;6159032;28;81611;-70
2022/05/25 05:33:03;;;;;;;13.00;8.65;;;23.20;68.70;;;;;;6160378;28;80437;-70
2022/05/25 05:36:03;;;;;;;14.98;8.93;;;23.20;68.60;;;;;;6160821;28;80444;-69
2022/05/25 05:39:04;;;;;;;14.82;8.38;;;23.20;68.70;;;;;;6160315;28;80626;-68
2022/05/25 05:42:04;;;;;;;17.33;7.80;;;23.20;68.80;;;;;;6160437;28;81231;-67
2022/05/25 05:45:05;;;;;;;13.98;7.68;;;23.20;69.10;;;;;;6158873;28;81442;-67
2022/05/25 05:48:06;;;;;;;12.50;7.75;;;23.20;69.60;;;;;;6160376;28;80454;-65
2022/05/25 05:51:06;;;;;;;15.57;7.75;;;23.30;68.80;;;;;;6158945;28;80568;-67
2022/05/25 05:54:07;;;;;;;21.20;7.78;;;23.30;67.90;;;;;;6159705;28;80368;-68
2022/05/25 05:57:07;;;;;;;13.45;7.85;;;23.40;67.50;;;;;;6159602;28;81323;-63
2022/05/25 06:00:08;;;;;;;9.65;6.93;;;23.40;66.80;;;;;;6157379;28;80784;-66
2022/05/25 06:03:14;;;;;;;9.52;7.00;;;23.40;66.30;;;;;;6149506;28;80352;-63
2022/05/25 06:06:15;;;;;;;11.68;7.72;;;23.40;66.10;;;;;;6158997;28;80550;-67
2022/05/25 06:09:16;;;;;;;10.02;7.28;;;23.40;65.90;;;;;;6158830;28;81689;-67
2022/05/25 06:12:16;;;;;;;14.02;7.10;;;23.40;65.90;;;;;;6160044;28;80369;-65
2022/05/25 06:21:55;;;;;;;11.95;8.13;;;23.40;65.50;;;;;;6154916;28;81676;-62
2022/05/25 06:24:56;;;;;;;16.05;8.95;;;23.30;65.90;;;;;;6159375;28;81061;-65
2022/05/25 06:27:57;;;;;;;16.02;8.60;;;23.30;66.40;;;;;;6157992;28;80877;-65
2022/05/25 06:30:57;;;;;;;14.38;8.98;;;23.30;66.50;;;;;;6158745;28;80939;-65
2022/05/25 06:33:58;;;;;;;14.07;9.18;;;23.20;66.10;;;;;;6159528;28;81217;-66
2022/05/25 06:36:58;;;;;;;15.77;8.90;;;23.20;65.80;;;;;;6159278;28;80845;-66
2022/05/25 06:39:59;;;;;;;17.60;9.70;;;23.20;66.70;;;;;;6154287;28;80261;-66
2022/05/25 06:42:59;;;;;;;13.25;9.07;;;23.20;68.00;;;;;;6158844;28;81335;-66
2022/05/25 06:46:00;;;;;;;12.68;8.43;;;23.10;68.60;;;;;;6157669;28;83446;-64
2022/05/25 06:49:01;;;;;;;12.25;8.63;;;23.20;68.50;;;;;;6152539;28;80933;-66
2022/05/25 06:52:01;;;;;;;18.08;9.18;;;23.30;68.80;;;;;;6133561;28;80528;-66
2022/05/25 06:55:02;;;;;;;16.52;9.70;;;23.30;69.10;;;;;;6134572;28;80872;-67
2022/05/25 06:58:02;;;;;;;14.95;8.57;;;23.30;69.00;;;;;;6140331;28;80237;-65
2022/05/25 07:01:03;;;;;;;16.58;10.98;;;23.40;68.90;;;;;;6159382;28;80374;-64
2022/05/25 07:04:03;;;;;;;12.35;7.95;;;23.40;69.00;;;;;;6147586;28;83102;-63
2022/05/25 07:07:04;;;;;;;15.20;7.85;;;23.40;69.80;;;;;;6150369;28;87892;-64
2022/05/25 07:10:04;;;;;;;13.55;8.82;;;23.40;69.70;;;;;;6155923;28;80546;-65
2022/05/25 07:13:05;;;;;;;17.60;8.98;;;23.40;69.60;;;;;;6158559;28;80482;-65
2022/05/25 07:16:05;;;;;;;18.27;9.88;;;23.40;69.50;;;;;;6158830;28;81260;-64
2022/05/25 07:19:06;;;;;;;17.02;9.23;;;23.40;69.20;;;;;;6155263;28;82118;-65
2022/05/25 07:22:06;;;;;;;20.30;9.23;;;23.40;69.00;;;;;;6152531;28;80703;-62
2022/05/25 07:25:07;;;;;;;14.32;8.40;;;23.50;68.70;;;;;;6146951;28;81002;-63
2022/05/25 07:28:07;;;;;;;13.18;7.82;;;23.50;68.40;;;;;;6144432;28;80730;-64
2022/05/25 07:31:08;;;;;;;12.30;7.95;;;23.50;68.40;;;;;;6158400;28;80499;-64
2022/05/25 07:34:09;;;;;;;14.93;9.00;;;23.50;68.50;;;;;;6159438;28;80383;-64
2022/05/25 07:37:10;;;;;;;109.45;51.95;;;23.50;68.50;;;;;;6158577;28;81203;-64
2022/05/25 07:40:11;;;;;;;234.30;103.82;;;23.50;68.60;;;;;;6154905;28;82996;-63
2022/05/25 07:43:11;;;;;;;359.50;157.38;;;23.50;68.30;;;;;;6151193;28;86679;-64
2022/05/25 07:46:12;;;;;;;270.92;118.80;;;23.50;68.00;;;;;;6151603;28;85630;-64
2022/05/25 07:49:12;;;;;;;181.38;82.38;;;23.50;68.10;;;;;;6151365;28;86394;-66
2022/05/25 07:52:13;;;;;;;232.00;102.97;;;23.60;67.40;;;;;;6154490;28;85448;-66
2022/05/25 07:55:14;;;;;;;342.83;147.13;;;23.50;68.10;;;;;;6151784;28;85604;-66
2022/05/25 07:58:14;;;;;;;450.38;203.82;;;23.50;68.50;;;;;;6156141;28;85951;-65
2022/05/25 08:01:15;;;;;;;335.75;153.18;;;23.50;68.70;;;;;;6156630;28;85724;-65
2022/05/25 08:07:35;;;;;;;246.80;109.93;;;23.60;68.20;;;;;;6147803;28;85642;-67
2022/05/25 08:10:35;;;;;;;221.45;102.35;;;23.60;67.70;;;;;;6148349;28;85715;-63
2022/05/25 08:13:36;;;;;;;217.10;97.82;;;23.70;67.80;;;;;;6147766;28;86554;-64
2022/05/25 08:16:36;;;;;;;173.25;79.10;;;23.70;67.60;;;;;;6145489;28;86913;-64
2022/05/25 08:19:38;;;;;;;163.40;73.45;;;23.70;67.30;;;;;;6153973;28;83079;-64
2022/05/25 08:22:39;;;;;;;151.30;69.50;;;23.70;67.70;;;;;;6153903;28;83659;-64
2022/05/25 08:25:39;;;;;;;143.63;60.90;;;23.70;67.40;;;;;;6153691;28;84087;-64
2022/05/25 08:28:40;;;;;;;127.38;55.38;;;23.70;66.80;;;;;;6157700;28;83632;-62
2022/05/25 08:31:40;;;;;;;103.88;49.95;;;23.80;66.90;;;;;;6154410;28;83100;-62
2022/05/25 08:34:41;;;;;;;90.22;42.45;;;23.80;66.90;;;;;;6154388;28;83048;-63
2022/05/25 08:37:41;;;;;;;88.00;39.33;;;23.80;66.70;;;;;;6154266;28;82973;-66
2022/05/25 08:40:42;;;;;;;69.13;34.85;;;23.70;66.60;;;;;;6148037;28;83148;-65
2022/05/25 08:43:42;;;;;;;65.13;31.30;;;23.80;67.10;;;;;;6153265;28;83742;-65
2022/05/25 08:46:43;;;;;;;66.82;31.75;;;23.80;66.80;;;;;;6153916;28;83111;-64
2022/05/25 08:49:43;;;;;;;57.53;27.45;;;23.80;67.10;;;;;;6153928;28;83178;-66
2022/05/25 08:52:44;;;;;;;48.90;23.63;;;23.80;67.20;;;;;;6155815;28;86316;-67
2022/05/25 08:55:44;;;;;;;38.90;20.83;;;23.80;66.90;;;;;;6158398;28;83126;-66
2022/05/25 08:58:45;;;;;;;43.17;21.85;;;23.80;66.90;;;;;;6158148;28;83121;-66
2022/05/25 09:01:46;;;;;;;40.78;19.48;;;23.80;66.90;;;;;;6157657;28;83018;-65
2022/05/25 09:04:47;;;;;;;34.88;17.65;;;23.70;67.30;;;;;;6154788;28;84646;-65
2022/05/25 09:07:48;;;;;;;33.38;15.55;;;23.80;67.20;;;;;;6158189;28;83780;-67
2022/05/25 09:10:48;;;;;;;29.42;14.65;;;23.70;67.30;;;;;;6157741;28;83485;-66
2022/05/25 09:13:49;;;;;;;21.98;13.95;;;23.80;67.10;;;;;;6157611;28;83198;-67
2022/05/25 09:16:49;;;;;;;23.50;13.90;;;23.80;66.90;;;;;;6157778;28;83754;-66
2022/05/25 09:19:50;;;;;;;19.00;12.20;;;23.80;66.50;;;;;;6155134;28;83124;-65
2022/05/25 09:22:50;;;;;;;26.63;11.00;;;23.80;66.30;;;;;;6157837;28;84128;-64
2022/05/25 09:25:51;;;;;;;17.88;9.88;;;23.80;66.70;;;;;;6157654;28;83493;-65
2022/05/25 09:28:51;;;;;;;21.95;10.80;;;23.80;66.50;;;;;;6156039;28;82734;-65
2022/05/25 09:31:52;;;;;;;16.48;10.13;;;23.80;65.90;;;;;;6153655;28;83271;-65
2022/05/25 09:34:52;;;;;;;17.58;11.23;;;23.90;66.00;;;;;;6157109;28;82972;-64
2022/05/25 09:37:53;;;;;;;16.48;10.20;;;23.90;65.80;;;;;;6155575;28;83332;-65
2022/05/25 09:40:53;;;;;;;20.55;10.35;;;23.90;65.70;;;;;;6156936;28;82879;-64
2022/05/25 09:43:54;;;;;;;16.25;10.35;;;23.90;65.30;;;;;;6153497;28;87905;-65
2022/05/25 09:46:55;;;;;;;15.65;9.90;;;23.80;65.60;;;;;;6157237;28;82913;-64
2022/05/25 09:49:57;;;;;;;35.33;13.38;;;23.80;65.30;;;;;;6155551;28;83473;-64
2022/05/25 09:52:57;;;;;;;92.60;23.13;;;23.80;67.00;;;;;;6156558;28;83621;-63
2022/05/25 09:55:58;;;;;;;78.18;22.40;;;23.80;68.40;;;;;;6153806;28;83552;-65
2022/05/25 09:58:58;;;;;;;74.20;22.60;;;23.80;69.00;;;;;;6156527;28;82870;-66
2022/05/25 10:01:59;;;;;;;67.03;20.13;;;23.80;69.30;;;;;;6157017;28;88097;-65
2022/05/25 10:05:00;;;;;;;57.78;19.05;;;23.80;69.30;;;;;;6153356;28;83968;-64
2022/05/25 10:08:03;;;;;;;62.95;20.02;;;23.90;68.50;;;;;;6150465;28;83014;-64
2022/05/25 10:11:05;;;;;;;65.20;22.13;;;23.90;69.70;;;;;;6156406;28;83548;-64
2022/05/25 10:14:05;;;;;;;63.85;22.33;;;23.90;69.80;;;;;;6150760;28;83848;-65
2022/05/25 10:17:06;;;;;;;62.70;20.77;;;23.90;70.20;;;;;;6156667;28;83066;-67
2022/05/25 10:20:06;;;;;;;56.00;20.10;;;23.80;70.70;;;;;;6147829;28;83090;-64
2022/05/25 10:23:07;;;;;;;56.33;19.75;;;23.70;70.80;;;;;;6156662;28;83491;-64
2022/05/25 10:26:07;;;;;;;40.95;19.08;;;23.70;70.90;;;;;;6157740;28;83777;-65
2022/05/25 10:29:08;;;;;;;41.85;16.35;;;23.70;70.90;;;;;;6153794;28;83310;-64
2022/05/25 10:38:47;;;;;;;29.63;15.82;;;23.80;69.60;;;;;;6155501;28;82944;-64
2022/05/25 10:41:50;;;;;;;32.80;15.38;;;23.80;69.20;;;;;;6154966;28;83575;-64
2022/05/25 10:44:50;;;;;;;34.38;16.15;;;23.80;69.90;;;;;;6155495;28;83541;-65
2022/05/25 10:47:57;;;;;;;29.63;13.70;;;23.70;70.70;;;;;;6146079;28;83451;-71
2022/05/25 10:50:57;;;;;;;21.30;13.07;;;23.80;70.10;;;;;;6151639;28;83146;-64
2022/05/25 10:57:17;;;;;;;23.88;13.10;;;23.70;69.20;;;;;;6155560;28;82942;-66
2022/05/25 11:00:18;;;;;;;25.55;12.85;;;23.70;69.80;;;;;;6155396;28;83059;-66
2022/05/25 11:03:19;;;;;;;19.65;13.38;;;23.70;69.70;;;;;;6153638;28;83956;-65
2022/05/25 11:06:21;;;;;;;25.98;13.57;;;23.70;69.30;;;;;;6155752;28;82879;-65
2022/05/25 11:09:22;;;;;;;26.38;13.50;;;23.70;69.20;;;;;;6153825;28;84083;-64
2022/05/25 11:12:22;;;;;;;21.88;12.55;;;23.70;69.10;;;;;;6154713;28;83212;-66
2022/05/25 11:15:23;;;;;;;13.75;8.15;;;23.60;67.40;;;;;;6159265;28;84038;-64
2022/05/25 11:18:23;;;;;;;11.00;5.63;;;23.50;64.50;;;;;;6154918;28;81846;-67
2022/05/25 11:21:24;;;;;;;11.65;6.07;;;23.40;63.30;;;;;;6158259;28;80501;-67
2022/05/25 11:24:26;;;;;;;6.93;4.57;;;23.40;62.80;;;;;;6158573;28;80242;-66
2022/05/25 11:27:26;;;;;;;7.15;4.30;;;23.40;63.70;;;;;;6157064;28;83688;-64
2022/05/25 11:30:28;;;;;;;8.27;4.85;;;23.30;64.30;;;;;;6152261;28;81009;-65
2022/05/25 11:33:29;;;;;;;7.35;4.20;;;23.40;64.10;;;;;;6157126;28;81790;-64
2022/05/25 11:36:29;;;;;;;7.40;4.35;;;23.50;63.30;;;;;;6159232;28;80491;-65
2022/05/25 11:39:30;;;;;;;9.02;3.67;;;23.50;63.30;;;;;;6158008;28;80329;-65
2022/05/25 11:42:30;;;;;;;5.30;3.75;;;23.50;63.10;;;;;;6157665;28;80329;-64
2022/05/25 11:45:31;;;;;;;6.93;3.08;;;23.50;63.00;;;;;;6157911;28;80413;-65
2022/05/25 11:48:32;;;;;;;6.55;3.33;;;23.50;62.90;;;;;;6158100;28;80833;-64
2022/05/25 11:51:32;;;;;;;4.28;2.97;;;23.50;62.40;;;;;;6158099;28;80493;-66
2022/05/25 11:54:32;;;;;;;4.28;3.13;;;23.50;62.40;;;;;;6150903;28;81202;-70
2022/05/25 11:57:34;;;;;;;7.10;3.13;;;23.50;62.90;;;;;;6161508;28;80547;-64
2022/05/25 12:00:34;;;;;;;4.60;3.28;;;23.60;62.50;;;;;;6160301;28;81476;-65
2022/05/25 12:03:35;;;;;;;5.30;2.72;;;23.50;62.40;;;;;;6160021;28;81542;-63
2022/05/25 12:06:35;;;;;;;5.25;3.03;;;23.50;62.40;;;;;;6156007;28;81500;-65
2022/05/25 12:09:36;;;;;;;5.22;2.72;;;23.50;62.20;;;;;;6157904;28;81175;-65
2022/05/25 12:12:37;;;;;;;4.05;3.25;;;23.50;62.00;;;;;;6157792;28;80881;-71
2022/05/25 12:15:37;;;;;;;6.82;3.60;;;23.50;62.20;;;;;;6157638;28;80374;-64
2022/05/25 12:18:38;;;;;;;5.00;2.88;;;23.50;62.30;;;;;;6157625;28;79951;-65
2022/05/25 12:21:40;;;;;;;5.85;3.00;;;23.50;63.10;;;;;;6157362;28;81501;-65
2022/05/25 12:24:40;;;;;;;5.00;2.92;;;23.50;62.80;;;;;;6158056;28;81433;-64
2022/05/25 12:27:41;;;;;;;4.68;2.95;;;23.50;63.80;;;;;;6157182;28;80596;-65
2022/05/25 12:30:43;;;;;;;5.18;3.00;;;23.50;63.30;;;;;;6155456;28;80286;-64
2022/05/25 12:33:45;;;;;;;4.05;2.72;;;23.40;62.80;;;;;;6155600;28;81544;-64
2022/05/25 12:36:45;;;;;;;4.93;2.35;;;23.50;63.90;;;;;;6164310;28;81100;-66
2022/05/25 12:39:46;;;;;;;7.95;2.90;;;23.40;63.00;;;;;;6162729;28;80284;-63
2022/05/25 12:42:46;;;;;;;3.10;2.45;;;23.40;63.50;;;;;;6148954;28;80469;-64
2022/05/25 12:49:06;;;;;;;7.97;2.35;;;23.40;64.40;;;;;;6153963;28;80770;-63
2022/05/25 12:52:07;;;;;;;3.28;2.58;;;23.50;64.20;;;;;;6155928;28;81273;-63
2022/05/25 12:55:07;;;;;;;5.82;2.40;;;23.50;63.60;;;;;;6158522;28;80878;-64
2022/05/25 12:58:09;;;;;;;4.55;2.45;;;23.50;65.00;;;;;;6159266;28;80343;-65
2022/05/25 13:01:10;;;;;;;4.07;2.30;;;23.50;65.20;;;;;;6161552;28;80539;-66
2022/05/25 13:04:10;;;;;;;2.72;2.20;;;23.50;64.00;;;;;;6155218;28;81120;-65
2022/05/25 13:07:11;;;;;;;4.13;2.22;;;23.50;63.30;;;;;;6161215;28;80307;-63
2022/05/25 13:10:11;;;;;;;4.93;2.00;;;23.50;63.70;;;;;;6159591;28;80847;-65
2022/05/25 13:13:12;;;;;;;3.40;2.38;;;23.50;63.80;;;;;;6161522;28;80935;-64
2022/05/25 13:16:12;;;;;;;3.25;2.60;;;23.40;63.40;;;;;;6156605;28;80818;-63
2022/05/25 13:19:13;;;;;;;7.40;2.50;;;23.50;63.30;;;;;;6158021;28;79955;-63
2022/05/25 13:22:14;;;;;;;2.47;2.00;;;23.40;62.60;;;;;;6159120;28;80755;-63
2022/05/25 13:25:14;;;;;;;2.95;2.10;;;23.40;62.70;;;;;;6161490;28;80532;-62
2022/05/25 13:28:15;;;;;;;4.68;1.70;;;23.40;62.80;;;;;;6161681;28;80669;-62
2022/05/25 13:31:15;;;;;;;2.58;2.20;;;23.40;62.80;;;;;;6151333;28;80521;-61
2022/05/25 13:34:16;;;;;;;3.60;2.25;;;23.40;62.40;;;;;;6160562;28;80358;-72
2022/05/25 13:37:17;;;;;;;2.92;2.35;;;23.40;62.20;;;;;;6156709;28;80459;-62
2022/05/25 13:40:17;;;;;;;3.58;2.50;;;23.40;62.30;;;;;;6160839;28;80463;-63
2022/05/25 13:43:18;;;;;;;3.15;2.20;;;23.40;61.20;;;;;;6160550;28;80893;-66
2022/05/25 13:46:19;;;;;;;8.52;2.50;;;23.40;61.50;;;;;;6158559;28;82076;-64
2022/05/25 13:49:19;;;;;;;2.92;2.22;;;23.40;61.30;;;;;;6160312;28;85940;-64
2022/05/25 13:52:20;;;;;;;3.88;2.30;;;23.40;61.20;;;;;;6160869;28;80630;-66
2022/05/25 13:55:20;;;;;;;2.15;1.95;;;23.30;60.60;;;;;;6157081;28;80457;-63
2022/05/25 13:58:21;;;;;;;5.07;2.10;;;23.30;60.00;;;;;;6157487;28;81377;-61
2022/05/25 14:01:21;;;;;;;4.97;2.00;;;23.30;60.40;;;;;;6159932;28;80227;-64
2022/05/25 14:04:22;;;;;;;4.43;2.15;;;23.30;60.10;;;;;;6159760;28;80261;-62
2022/05/25 14:07:22;;;;;;;2.05;1.80;;;23.30;60.20;;;;;;6158023;28;80593;-63
2022/05/25 14:13:42;;;;;;;5.00;1.95;;;23.30;60.00;;;;;;6160301;28;80419;-62
2022/05/25 14:16:43;;;;;;;2.20;1.60;;;23.30;59.60;;;;;;6160102;28;80521;-63
2022/05/25 14:19:43;;;;;;;34.70;13.32;;;23.30;59.60;;;;;;6155457;28;80411;-63
2022/05/25 14:22:43;;;;;;;146.90;64.68;;;23.20;59.50;;;;;;6156819;28;83309;-62
2022/05/25 14:25:44;;;;;;;257.58;115.80;;;23.20;59.90;;;;;;6156655;28;86276;-63
2022/05/25 14:28:44;;;;;;;219.93;98.55;;;23.20;59.70;;;;;;6153542;28;85436;-62
2022/05/25 14:31:45;;;;;;;176.68;80.88;;;23.20;59.20;;;;;;6154776;28;85362;-62
2022/05/25 14:34:45;;;;;;;163.30;71.82;;;23.20;60.40;;;;;;6156797;28;83173;-61
2022/05/25 14:37:46;;;;;;;152.85;66.50;;;23.30;60.00;;;;;;6156956;28;82931;-62
2022/05/25 14:40:47;;;;;;;196.90;89.47;;;23.30;60.80;;;;;;6156686;28;83171;-63
2022/05/25 14:43:48;;;;;;;260.05;113.78;;;23.30;60.00;;;;;;6156166;28;82846;-62
2022/05/25 14:46:49;;;;;;;217.65;99.97;;;23.30;60.30;;;;;;6150949;28;85694;-63
2022/05/25 14:49:50;;;;;;;172.00;81.15;;;23.30;60.20;;;;;;6151469;28;87994;-63
2022/05/25 14:52:50;;;;;;;163.48;78.13;;;23.30;60.60;;;;;;6156721;28;84544;-64
2022/05/25 14:55:52;;;;;;;143.05;67.97;;;23.30;61.30;;;;;;6155923;28;84130;-64
2022/05/25 14:58:52;;;;;;;126.47;60.55;;;23.30;62.00;;;;;;6151037;28;83013;-63
2022/05/25 15:01:53;;;;;;;111.57;54.50;;;23.30;61.90;;;;;;6156495;28;83124;-63
2022/05/25 15:04:53;;;;;;;113.25;51.85;;;23.30;61.40;;;;;;6156126;28;83287;-63
2022/05/25 15:07:54;;;;;;;99.55;45.72;;;23.30;61.60;;;;;;6156483;28;83688;-62
2022/05/25 15:10:56;;;;;;;80.03;39.88;;;23.30;60.40;;;;;;6156193;28;83043;-63
2022/05/25 15:20:36;;;;;;;55.83;28.42;;;23.20;61.10;;;;;;6147834;28;83170;-61
2022/05/25 15:23:37;;;;;;;48.55;24.77;;;23.30;61.30;;;;;;6140788;28;83841;-63
2022/05/25 15:26:38;;;;;;;42.47;21.80;;;23.30;61.20;;;;;;6143056;28;83147;-62
2022/05/25 15:29:38;;;;;;;34.55;19.55;;;23.30;61.20;;;;;;6148654;28;83381;-63
2022/05/25 15:32:39;;;;;;;45.78;18.02;;;23.30;61.40;;;;;;6142599;28;83280;-63
2022/05/25 15:35:39;;;;;;;34.33;16.02;;;23.30;61.20;;;;;;6151170;28;84206;-61
2022/05/25 15:38:40;;;;;;;29.35;13.93;;;23.30;61.20;;;;;;6143533;28;83177;-62
2022/05/25 15:41:40;;;;;;;22.17;11.20;;;23.30;60.80;;;;;;6148957;28;84181;-63
2022/05/25 15:44:41;;;;;;;28.92;9.95;;;23.20;60.10;;;;;;6144364;28;83016;-61
2022/05/25 15:47:41;;;;;;;18.92;9.48;;;23.20;60.70;;;;;;6150726;28;83065;-62
2022/05/25 15:50:42;;;;;;;17.45;8.23;;;23.20;60.90;;;;;;6153647;28;80898;-62
2022/05/25 15:53:42;;;;;;;13.82;6.75;;;23.20;60.90;;;;;;6152456;28;80914;-62
2022/05/25 15:56:43;;;;;;;15.38;7.38;;;23.20;61.50;;;;;;6156357;28;80935;-62
2022/05/25 15:59:44;;;;;;;8.52;5.97;;;23.20;60.90;;;;;;6156080;28;80615;-62
2022/05/25 16:02:44;;;;;;;14.98;5.82;;;23.20;61.30;;;;;;6150737;28;80607;-63
2022/05/25 16:05:45;;;;;;;11.60;5.97;;;23.10;61.00;;;;;;6155689;28;80570;-62